createdAt,value
2023-03-01T00:00:00.224Z,0
2023-03-01T00:05:00.224Z,0
2023-03-01T00:10:00.218Z,0
2023-03-01T00:15:00.224Z,0
2023-03-01T00:20:00.239Z,0
2023-03-01T00:25:00.226Z,0
2023-03-01T00:30:00.217Z,0
2023-03-01T00:35:00.232Z,0
2023-03-01T00:40:00.233Z,0
2023-03-01T00:45:00.238Z,0
2023-03-01T00:50:00.229Z,0
2023-03-01T00:55:00.235Z,0
2023-03-01T01:00:00.229Z,0
2023-03-01T01:05:00.221Z,0
2023-03-01T01:10:00.270Z,0
2023-03-01T01:15:00.224Z,0
2023-03-01T01:20:00.228Z,0
2023-03-01T01:25:00.262Z,0
2023-03-01T01:30:00.252Z,0
2023-03-01T01:35:00.231Z,0
2023-03-01T01:40:00.265Z,0
2023-03-01T01:45:00.230Z,0
2023-03-01T01:50:00.233Z,0
2023-03-01T01:55:00.224Z,0
2023-03-01T02:00:00.250Z,0
2023-03-01T02:05:00.246Z,0
2023-03-01T02:10:00.219Z,0
2023-03-01T02:15:00.219Z,0
2023-03-01T02:20:00.243Z,0
2023-03-01T02:25:00.231Z,0
2023-03-01T02:30:00.234Z,0
2023-03-01T02:35:00.229Z,0
2023-03-01T02:40:00.222Z,0
2023-03-01T02:45:00.224Z,0
2023-03-01T02:50:00.219Z,0
2023-03-01T02:55:00.233Z,0
2023-03-01T03:00:00.232Z,0
2023-03-01T03:05:00.236Z,0
2023-03-01T03:10:00.223Z,0
2023-03-01T03:15:00.230Z,0
2023-03-01T03:20:00.222Z,0
2023-03-01T03:25:00.232Z,0
2023-03-01T03:30:00.209Z,0
2023-03-01T03:35:00.223Z,0
2023-03-01T03:40:00.258Z,0
2023-03-01T03:45:00.230Z,0
2023-03-01T03:50:00.246Z,0
2023-03-01T03:55:00.231Z,0
2023-03-01T04:00:00.265Z,0
2023-03-01T04:05:00.233Z,0
2023-03-01T04:10:00.221Z,0
2023-03-01T04:15:00.222Z,0
2023-03-01T04:20:00.229Z,0
2023-03-01T04:25:00.214Z,0
2023-03-01T04:30:00.238Z,0
2023-03-01T04:35:00.225Z,0
2023-03-01T04:40:00.232Z,0
2023-03-01T04:45:00.225Z,0
2023-03-01T04:50:00.232Z,0
2023-03-01T04:55:00.232Z,0
2023-03-01T05:00:00.224Z,0
2023-03-01T05:05:00.225Z,0
2023-03-01T05:10:00.241Z,0
2023-03-01T05:15:00.222Z,0
2023-03-01T05:20:00.229Z,0
2023-03-01T05:25:00.225Z,0
2023-03-01T05:30:00.229Z,0
2023-03-01T05:35:00.211Z,0
2023-03-01T05:40:00.230Z,0
2023-03-01T05:45:00.213Z,0
2023-03-01T05:50:00.229Z,0
2023-03-01T05:55:00.209Z,0
2023-03-01T06:00:00.235Z,9
2023-03-01T06:05:00.338Z,30
2023-03-01T06:10:00.240Z,62
2023-03-01T06:15:00.231Z,103
2023-03-01T06:20:00.230Z,138
2023-03-01T06:25:00.236Z,230
2023-03-01T06:30:00.262Z,377
2023-03-01T06:35:00.247Z,504
2023-03-01T06:40:00.260Z,641
2023-03-01T06:45:00.234Z,917
2023-03-01T06:50:00.224Z,1032
2023-03-01T06:55:00.238Z,1308
2023-03-01T07:00:00.261Z,1308
2023-03-01T07:05:00.288Z,1653
2023-03-01T07:10:00.231Z,1859
2023-03-01T07:15:00.230Z,1859
2023-03-01T07:20:00.236Z,2090
2023-03-01T07:25:00.236Z,2090
2023-03-01T07:30:00.231Z,2090
2023-03-01T07:35:00.232Z,2349
2023-03-01T07:40:00.238Z,2349
2023-03-01T07:45:00.243Z,2640
2023-03-01T07:50:00.238Z,2640
2023-03-01T07:55:00.252Z,2640
2023-03-01T08:00:00.230Z,2970
2023-03-01T08:05:00.219Z,3042
2023-03-01T08:10:00.221Z,3042
2023-03-01T08:15:00.279Z,3337
2023-03-01T08:20:00.260Z,3337
2023-03-01T08:25:00.229Z,3337
2023-03-01T08:30:00.229Z,3337
2023-03-01T08:35:00.220Z,3751
2023-03-01T08:40:00.320Z,3751
2023-03-01T08:45:00.240Z,24769
2023-03-01T08:50:00.230Z,40776
2023-03-01T08:55:00.216Z,40776
2023-03-01T09:00:00.234Z,44083
2023-03-01T09:05:00.243Z,45930
2023-03-01T09:10:00.227Z,45930
2023-03-01T09:15:00.210Z,45930
2023-03-01T09:20:00.228Z,51630
2023-03-01T09:25:00.310Z,51630
2023-03-01T09:30:00.225Z,51630
2023-03-01T09:35:00.254Z,58090
2023-03-01T09:40:00.237Z,58090
2023-03-01T09:45:00.247Z,58090
2023-03-01T09:50:00.236Z,58090
2023-03-01T09:55:01.029Z,63025
2023-03-01T10:00:00.218Z,65403
2023-03-01T10:05:00.336Z,65403
2023-03-01T10:10:00.231Z,65403
2023-03-01T10:15:00.230Z,65403
2023-03-01T10:20:00.230Z,65403
2023-03-01T10:25:00.242Z,73502
2023-03-01T10:30:00.227Z,73502
2023-03-01T10:35:00.231Z,73502
2023-03-01T10:40:00.221Z,73502
2023-03-01T10:45:00.244Z,73502
2023-03-01T10:50:00.256Z,80778
2023-03-01T10:55:00.234Z,80778
2023-03-01T11:00:00.228Z,82585
2023-03-01T11:05:00.308Z,82585
2023-03-01T11:10:00.233Z,82585
2023-03-01T11:15:00.237Z,82585
2023-03-01T11:20:02.861Z,82585
2023-03-01T11:25:10.016Z,82585
2023-03-01T11:30:00.263Z,82585
2023-03-01T11:35:00.235Z,82585
2023-03-01T11:40:00.231Z,82585
2023-03-01T11:45:00.237Z,89989
2023-03-01T11:50:00.231Z,89989
2023-03-01T11:55:00.246Z,89989
2023-03-01T12:00:00.218Z,89989
2023-03-01T12:05:00.240Z,89989
2023-03-01T12:10:00.247Z,89989
2023-03-01T12:15:00.263Z,92875
2023-03-01T12:20:00.231Z,92875
2023-03-01T12:25:00.236Z,92875
2023-03-01T12:30:00.223Z,92875
2023-03-01T12:35:00.230Z,92875
2023-03-01T12:40:00.233Z,92875
2023-03-01T12:45:00.237Z,92875
2023-03-01T12:50:00.230Z,92875
2023-03-01T12:55:00.232Z,92875
2023-03-01T13:00:00.234Z,92875
2023-03-01T13:05:00.256Z,92875
2023-03-01T13:10:00.239Z,92875
2023-03-01T13:15:00.238Z,92875
2023-03-01T13:20:00.249Z,92875
2023-03-01T13:25:00.222Z,92875
2023-03-01T13:30:00.241Z,92875
2023-03-01T13:35:00.210Z,84900
2023-03-01T13:40:00.209Z,84900
2023-03-01T13:45:00.221Z,84900
2023-03-01T13:50:00.242Z,82528
2023-03-01T13:55:00.226Z,82528
2023-03-01T14:00:00.237Z,82528
2023-03-01T14:10:00.241Z,82528
2023-03-01T14:15:00.232Z,82528
2023-03-01T14:20:00.257Z,82528
2023-03-01T14:25:00.240Z,73418
2023-03-01T14:30:00.216Z,72729
2023-03-01T14:35:00.262Z,72729
2023-03-01T14:40:00.236Z,72729
2023-03-01T14:45:00.221Z,72729
2023-03-01T14:50:00.233Z,65193
2023-03-01T14:55:00.230Z,65193
2023-03-01T15:00:00.258Z,65193
2023-03-01T15:05:00.239Z,57996
2023-03-01T15:10:00.254Z,57996
2023-03-01T15:15:04.652Z,57996
2023-03-01T15:20:00.224Z,51618
2023-03-01T15:25:00.228Z,49945
2023-03-01T15:30:00.235Z,45920
2023-03-01T15:35:00.223Z,45920
2023-03-01T15:40:00.226Z,45920
2023-03-01T15:45:00.237Z,27071
2023-03-01T15:50:00.287Z,4972
2023-03-01T15:55:00.229Z,4972
2023-03-01T16:00:00.314Z,4420
2023-03-01T16:05:00.234Z,4420
2023-03-01T16:10:00.341Z,3918
2023-03-01T16:15:00.238Z,3487
2023-03-01T16:20:00.334Z,3080
2023-03-01T16:25:00.232Z,2741
2023-03-01T16:30:00.473Z,2168
2023-03-01T16:35:00.238Z,2181
2023-03-01T16:40:00.232Z,1936
2023-03-01T16:45:00.221Z,1721
2023-03-01T16:50:00.242Z,1359
2023-03-01T16:55:00.236Z,1206
2023-03-01T17:00:00.280Z,844
2023-03-01T17:05:00.237Z,664
2023-03-01T17:10:00.226Z,442
2023-03-01T17:15:00.241Z,315
2023-03-01T17:20:00.951Z,158
2023-03-01T17:25:00.218Z,144
2023-03-01T17:30:00.224Z,73
2023-03-01T17:35:00.229Z,37
2023-03-01T17:40:00.251Z,16
2023-03-01T17:45:00.254Z,9
2023-03-01T17:50:00.236Z,9
2023-03-01T17:55:00.271Z,9
2023-03-01T18:00:00.230Z,2
2023-03-01T18:05:00.231Z,2
2023-03-01T18:10:00.249Z,0
2023-03-01T18:15:00.234Z,0
2023-03-01T18:20:00.237Z,0
2023-03-01T18:25:00.250Z,0
2023-03-01T18:30:00.231Z,0
2023-03-01T18:35:00.226Z,0
2023-03-01T18:40:00.222Z,0
2023-03-01T18:45:00.263Z,0
2023-03-01T18:50:00.224Z,0
2023-03-01T18:55:00.263Z,0
2023-03-01T19:00:00.259Z,0
2023-03-01T19:05:00.231Z,0
2023-03-01T19:10:00.223Z,0
2023-03-01T19:15:00.236Z,0
2023-03-01T19:20:00.227Z,0
2023-03-01T19:25:00.240Z,0
2023-03-01T19:30:00.246Z,0
2023-03-01T19:35:00.231Z,0
2023-03-01T19:40:00.250Z,0
2023-03-01T19:45:00.229Z,0
2023-03-01T19:50:00.233Z,0
2023-03-01T19:55:08.898Z,0
2023-03-01T20:00:00.235Z,0
2023-03-01T20:05:00.245Z,0
2023-03-01T20:10:00.219Z,0
2023-03-01T20:15:00.215Z,0
2023-03-01T20:20:00.357Z,0
2023-03-01T20:25:00.251Z,0
2023-03-01T20:30:00.229Z,0
2023-03-01T20:35:00.237Z,0
2023-03-01T20:40:00.233Z,0
2023-03-01T20:45:00.238Z,0
2023-03-01T20:50:00.238Z,0
2023-03-01T20:55:00.253Z,0
2023-03-01T21:00:00.259Z,0
2023-03-01T21:05:00.301Z,0
2023-03-01T21:10:00.443Z,0
2023-03-01T21:15:00.227Z,0
2023-03-01T21:20:00.262Z,0
2023-03-01T21:25:00.225Z,0
2023-03-01T21:30:00.217Z,0
2023-03-01T21:35:00.234Z,0
2023-03-01T21:40:00.267Z,0
2023-03-01T21:45:00.218Z,0
2023-03-01T21:50:00.264Z,0
2023-03-01T21:55:00.225Z,0
2023-03-01T22:00:00.232Z,0
2023-03-01T22:05:00.227Z,0
2023-03-01T22:10:00.230Z,0
2023-03-01T22:15:00.238Z,0
2023-03-01T22:20:00.227Z,0
2023-03-01T22:25:00.227Z,0
2023-03-01T22:30:00.227Z,0
2023-03-01T22:35:00.223Z,0
2023-03-01T22:40:00.238Z,0
2023-03-01T22:45:00.232Z,0
2023-03-01T22:50:00.234Z,0
2023-03-01T22:55:00.239Z,0
2023-03-01T23:00:00.234Z,0
2023-03-01T23:05:00.235Z,0
2023-03-01T23:10:00.241Z,0
2023-03-01T23:15:00.228Z,0
2023-03-01T23:20:00.228Z,0
2023-03-01T23:25:00.229Z,0
2023-03-01T23:30:00.230Z,0
2023-03-01T23:35:00.226Z,0
2023-03-01T23:40:00.241Z,0
2023-03-01T23:45:00.220Z,0
2023-03-01T23:50:00.246Z,0
2023-03-01T23:55:00.248Z,0
